Flight Track Log - Related Links

Times and Time Zones

All times are in EDT time to prevent confusion due to time zone crossing. See the N6GD flight status page for this flight to view local times or setup timezone preferences in your user account.


Time Position Orientation Groundspeed Altitude Reporting Facility
EDT Latitude Longitude Course Direction KTS MPH feet Rate Location/Type
Sun 09:29:32 AM 39.6667 -104.9500 299° West 248 285 9,100  Level Denver TRACON
Sun 09:30:10 AM 39.6914 -104.9983 304° West 246 283 10,500 2,121 Climbing Denver Center
Sun 09:31:11 AM 39.7267 -105.0839 298° West 250 288 12,600 2,115 Climbing Denver Center
Sun 09:32:12 AM 39.7617 -105.1675 299° West 262 302 14,800 2,164 Climbing Denver Center
Sun 09:33:13 AM 39.7969 -105.2531 298° West 266 306 17,000 1,918 Climbing Denver Center
Sun 09:34:00 AM 39.8340 -105.5381 299° West  Level FlightAware Approximate
Sun 09:34:14 AM 39.8306 -105.3353 298° West 261 300 18,700  Level Denver Center
Sun 09:35:16 AM 39.8686 -105.4275 298° West 265 305 20,500 1,122 Climbing Denver Center
Sun 09:36:17 AM 39.9103 -105.5278 298° West 318 366 21,000 492 Climbing Denver Center
Sun 09:37:18 AM 39.9511 -105.6269 298° West 328 377 21,500 885 Climbing Denver Center
Sun 09:38:19 AM 39.9403 -105.7653 264° West 375 432 22,800 1,377 Climbing Denver Center
Sun 09:39:20 AM 39.9267 -105.9267 264° West 376 433 24,300 1,574 Climbing Denver Center
Sun 09:40:21 AM 39.9125 -106.0644 262° West 381 438 26,000 1,805 Climbing Denver Center
Sun 09:41:23 AM 39.9019 -106.1992 264° West 381 438 28,000 1,854 Climbing Denver Center
Sun 09:42:24 AM 39.8956 -106.3319 266° West 374 430 29,800 1,820 Climbing Denver Center
Sun 09:43:25 AM 39.9169 -106.4622 282° West 369 425 31,700 1,770 Climbing Denver Center
Sun 09:44:26 AM 39.9361 -106.5900 281° West 368 423 33,400 1,561 Climbing Denver Center
Sun 09:45:28 AM 39.9550 -106.7319 280° West 362 417 34,900 1,268 Climbing Denver Center
Sun 09:46:29 AM 39.9711 -106.8608 279° West 360 414 36,000 541 Climbing Denver Center
Sun 09:47:30 AM 39.9897 -106.9964 280° West 375 432 36,000  Level Denver Center
Sun 09:48:31 AM 40.0089 -107.1444 280° West 410 472 36,000  Level Denver Center
Sun 09:49:33 AM 40.0294 -107.2981 280° West 428 493 36,000  Level Denver Center
Sun 09:50:34 AM 40.0469 -107.4503 279° West 427 491 36,000  Level Denver Center
Sun 09:51:35 AM 40.0678 -107.6017 280° West 427 491 36,000  Level Denver Center
Sun 09:52:37 AM 40.0864 -107.7517 279° West 422 486 36,000  Level Denver Center
Sun 09:53:38 AM 40.1075 -107.9314 279° West 421 484 36,000  Level Denver Center
Sun 09:54:39 AM 40.1261 -108.0811 279° West 418 481 36,000  Level Denver Center
Sun 09:55:41 AM 40.1447 -108.2297 279° West 417 480 36,000  Level Denver Center
Sun 09:56:42 AM 40.1622 -108.3811 279° West 425 489 36,000  Level Denver Center
Sun 09:57:53 AM 40.1836 -108.5597 279° West 421 484 36,000  Level Salt Lake Center
Sun 09:58:54 AM 40.2008 -108.7106 279° West 422 486 36,000  Level Salt Lake Center
Sun 09:59:56 AM 40.2178 -108.8611 278° West 422 486 36,000  Level Salt Lake Center
Sun 10:00:57 AM 40.2350 -109.0136 278° West 422 486 36,000  Level Salt Lake Center
Sun 10:01:59 AM 40.2508 -109.1597 278° West 417 480 36,000 -1,268 Level Salt Lake Center
Sun 10:03:00 AM 40.2686 -109.3178 278° West 378 435 33,400 -2,439 Descending Salt Lake Center
Sun 10:04:02 AM 40.2839 -109.4553 278° West 379 436 31,000 -2,341 Descending Salt Lake Center
Sun 10:05:03 AM 40.2983 -109.5925 278° West 382 440 28,600 -2,361 Descending Salt Lake Center
Sun 10:06:04 AM 40.3142 -109.7322 278° West 384 442 26,200 -2,341 Descending Salt Lake Center
Sun 10:07:06 AM 40.3281 -109.8769 277° West 397 457 23,800 -2,323 Descending Salt Lake Center
Sun 10:08:08 AM 40.3433 -110.0214 278° West 401 461 21,400 -2,341 Descending Salt Lake Center
Sun 10:09:09 AM 40.3581 -110.1636 278° West 398 458 19,000 -2,293 Descending Salt Lake Center
Sun 10:10:11 AM 40.3753 -110.3322 278° West 394 453 16,700 -1,707 Descending Salt Lake Center
Sun 10:11:12 AM 40.3892 -110.4714 278° West 391 450 15,500 -1,122 Descending Salt Lake Center
Sun 10:12:14 AM 40.4028 -110.5925 278° West 388 447 14,400 -829 Descending Salt Lake Center
Sun 10:13:15 AM 40.4181 -110.7581 277° West 385 443 13,800 -439 Descending Salt Lake Center
Sun 10:14:17 AM 40.4314 -110.8956 277° West 384 442 13,500 -290 Descending Salt Lake Center

Login

Don't have an account? Register now (free) for customized features, flight alerts, and more!